Details From EKCH - Kastrup
To LGAV - Athens Intl Airport Elefterios Venizel
Flight Number -
Tags Decoded
Created
Modified
Stats Distance 1,166 nm / 2,160 km
Max Altitude 0 ft / 0 m
Waypoints 8
Social Downloads 3
Likes 0
Share VATSIM

Download

Looking for another format? Having issues loading an existing format? Contact us
Advertisement - Login to hide

Notes

Decoded

Route

EKCH BAREP ABITU TITEL NASKO SAT53 R2814 LGAV

ID Type Via Altitude Latitude Longitude Leg Dist Tot Dist Heading (true) Name
O EKCH APT - 0 ft / 0 m 55.62761˚ 12.62973˚ - 0 nm - -
BAREP FIX - 0 ft / 0 m 52.27111˚ 15.56444˚ 226 nm 226 nm 152° / 154° -
ABITU FIX - 0 ft / 0 m 48.33333˚ 18.32472˚ 259 nm 485 nm 155° / 157° -
TITEL FIX - 0 ft / 0 m 45.29303˚ 20.16958˚ 197 nm 683 nm 157° / 158° -
NASKO FIX - 0 ft / 0 m 41.76694˚ 22.09778˚ 227 nm 911 nm 158° / 159° -
SAT53 FIX - 0 ft / 0 m 38.10760˚ 24.15032˚ 239 nm 1150 nm 156° / 157° -
R2814 FIX - 0 ft / 0 m 37.95026˚ 23.96839˚ 12 nm 1163 nm 222° / 222° -
O LGAV APT - 0 ft / 0 m 37.92101˚ 23.91920˚ 2 nm 1166 nm 233° / 233° -

Altitude Profile

Advertisement - Login to hide

Weather


0- 5 10 15 20 25 30 35+ Temperature / ° C

Clouds and Precipitation
Forecast for 2017-12-13 18:00 UTC. Updated an hour ago

Ground ~20,000 ft ~40,000 ft Winds

EKCH

Details ICAO EKCH (CPH)
Name Kastrup
Region Denmark / Faroe Islands
Timezone Europe/Copenhagen (UTC+1.0)
Stats Elevation 17 ft / 5 m (AMSL)
Location 55.612915° 12.640961°
Runways 3
Magnetic Variation 3.724° E

METAR

EKCH 131820Z 19022KT 9999 RA FEW009 BKN010 03/02 Q0992 TEMPO NSW

Decode

TAF

TAF EKCH 131713Z 1318/1418 18018KT 8000 BKN015 TEMPO 1318/1323 19020G30KT BKN010 TEMPO 1323/1404 4000 BR BKN007 TEMPO 1404/1410 1200 SNRA BKN004 BECMG 1407/1410 21018KT TEMPO 1410/1418 22018G28KT BKN010

Decode

Departure Runways

ID Width Length Bearing (true) Bearing (mag) Surface Threshold Offset Overrun Length
04L 148 ft / 45 m 11,848 ft / 3,611 m 41.15° 37.43° Asphalt 0 ft / 0 m 0 ft / 0 m
04R 148 ft / 45 m 10,814 ft / 3,296 m 41.15° 37.43° Asphalt 0 ft / 0 m 0 ft / 0 m
12 148 ft / 45 m 10,047 ft / 3,063 m 123.21° 119.49° Asphalt 2,313 ft / 705 m 0 ft / 0 m
22L 148 ft / 45 m 10,814 ft / 3,296 m 221.17° 217.45° Asphalt 0 ft / 0 m 0 ft / 0 m
22R 148 ft / 45 m 11,848 ft / 3,611 m 221.18° 217.46° Asphalt 2,018 ft / 615 m 0 ft / 0 m
30 148 ft / 45 m 10,047 ft / 3,063 m 303.25° 299.53° Asphalt 886 ft / 270 m 0 ft / 0 m

LGAV

Details ICAO LGAV (ATH)
Name Athens Intl Airport Elefterios Venizel
Region Greece
Timezone Europe/Athens (UTC+2.0)
Stats Elevation 308 ft / 94 m (AMSL)
Location 37.936357° 23.944470°
Runways 2
Magnetic Variation 4.484° E

METAR

LGAV 131820Z 08007KT 040V120 CAVOK 16/06 Q1019 NOSIG

Decode

TAF

TAF LGAV 131700Z 1318/1418 25008KT 9999 FEW025= TAF LGEL 131700Z 1318/1418 26010KT 9999 FEW025 BECMG 1319/1321 VRB05KT

Decode

Destination Runways

ID Width Length Bearing (true) Bearing (mag) Surface Threshold Offset Overrun Length
03L 148 ft / 45 m 12,474 ft / 3,802 m 36.51° 32.03° Asphalt 984 ft / 300 m 393 ft / 120 m
03R 148 ft / 45 m 13,131 ft / 4,002 m 36.52° 32.04° Asphalt 984 ft / 300 m 393 ft / 120 m
21L 148 ft / 45 m 13,131 ft / 4,002 m 216.54° 212.06° Asphalt 984 ft / 300 m 393 ft / 120 m
21R 148 ft / 45 m 12,474 ft / 3,802 m 216.53° 212.05° Asphalt 984 ft / 300 m 393 ft / 120 m

Approach Navaids

Runway Type Ident Frequency Range Bearing (true) Bearing (mag) Slope Elevation
03L Localiser IATL 110.50 MHz 18 nm / 33 km 36.52° 32.04° - 282 ft / 86 m (AMSL)
03L Glidescope IATL 110.50 MHz 10 nm / 19 km 36.52° 32.03° 3.00° 255 ft / 78 m (AMSL)
03L DME IATL 110.50 MHz 18 nm / 33 km - - - 255 ft / 78 m (AMSL)
03R Localiser IATR 111.10 MHz 18 nm / 33 km 36.97° 32.49° - 302 ft / 92 m (AMSL)
03R Glidescope IATR 111.10 MHz 10 nm / 19 km 36.53° 32.05° 3.00° 271 ft / 83 m (AMSL)
21L Localiser IEVL 111.10 MHz 18 nm / 33 km 216.52° 212.04° - 271 ft / 83 m (AMSL)
21L Glidescope IEVL 111.10 MHz 10 nm / 19 km 216.53° 212.05° 3.00° 302 ft / 92 m (AMSL)
21L DME IEVL 111.10 MHz 18 nm / 33 km - - - 303 ft / 92 m (AMSL)
21R Localiser IEVR 110.50 MHz 18 nm / 33 km 216.50° 212.02° - 255 ft / 78 m (AMSL)
21R Glidescope IEVR 110.50 MHz 10 nm / 19 km 216.52° 212.03° 3.00° 282 ft / 86 m (AMSL)
21R DME IEVR 110.50 MHz 18 nm / 33 km - - - 282 ft / 86 m (AMSL)

Popular Alternatives